Arcanum, Ohio
Current Conditions -  °F | °C
As of 12:55 AM on Friday 28 Nov 2014 (Local Time) from KVES Reporting Station
Overcast Overcast  
Wind Chill: 16°   Ceiling: 4700
Heat Index: 25°   Visibility: 10mi
Dew Point: 23°   Wind: 8mph
Humidity: 93%   Direction: 280°W
Pressure: 30.35"   Gusts: NA
Location:  39.99°N, 84.55°W
Report Text: KVES 280555Z AUTO 28007KT 10SM SCT015 OVC047 M04/M05 A3035 RMK AO2
Loading
Personal Weather Stations






























Interactive Weather Map New forecast layout! Learn more

10-Day Weather Forecast

Advertisements
Track Severe Weather on mobile